Time;durP1;ratioP1;P1;durP2;ratioP2;P2;SDS_P1;SDS_P2;PMS_P1;PMS_P2;Temp;Humidity;BMP_temperature;BMP_pressure;BME280_temperature;BME280_humidity;BME280_pressure;Samples;Min_cycle;Max_cycle;Signal;HPM_P1;HPM_P2
2023/08/04 00:00:38;;;;;;;;;;;15.20;99.90;;;;;;5140857;27;19911;-60
2023/08/04 00:03:04;;;;;;;;;;;15.20;99.90;;;;;;5140718;27;19908;-60
2023/08/04 00:05:29;;;;;;;;;;;15.20;99.90;;;;;;5140539;27;19990;-60
2023/08/04 00:07:55;;;;;;;;;;;15.20;99.90;;;;;;5140620;27;19922;-60
2023/08/04 00:10:21;;;;;;;;;;;15.20;99.90;;;;;;5140816;27;19911;-60
2023/08/04 00:12:46;;;;;;;;;;;15.20;99.90;;;;;;5140301;27;19907;-60
2023/08/04 00:15:12;;;;;;;;;;;15.30;99.90;;;;;;5140041;27;19915;-60
2023/08/04 00:17:38;;;;;;;;;;;15.40;99.90;;;;;;5121662;27;19908;-60
2023/08/04 00:20:08;;;;;;;;;;;15.40;99.90;;;;;;5139981;27;20335;-60
2023/08/04 00:22:34;;;;;;;;;;;15.40;99.90;;;;;;5140086;27;20290;-60
2023/08/04 00:25:00;;;;;;;;;;;15.50;99.90;;;;;;5140395;27;19918;-60
2023/08/04 00:27:26;;;;;;;;;;;15.50;99.90;;;;;;5140195;27;20379;-60
2023/08/04 00:29:51;;;;;;;;;;;15.50;99.90;;;;;;5140175;27;19907;-60
2023/08/04 00:32:17;;;;;;;;;;;15.60;99.90;;;;;;5139712;27;19915;-60
2023/08/04 00:34:43;;;;;;;;;;;15.60;99.90;;;;;;5139966;27;20323;-60
2023/08/04 00:37:08;;;;;;;;;;;15.60;99.90;;;;;;5140116;27;20308;-60
2023/08/04 00:39:34;;;;;;;;;;;15.60;99.90;;;;;;5139730;27;19912;-60
2023/08/04 00:41:59;;;;;;;;;;;15.50;99.90;;;;;;5139953;27;19907;-60
2023/08/04 00:44:25;;;;;;;;;;;15.50;99.90;;;;;;5140226;27;19960;-60
2023/08/04 00:46:51;;;;;;;;;;;15.50;99.90;;;;;;5139691;27;19908;-60
2023/08/04 00:49:18;;;;;;;;;;;15.50;99.90;;;;;;5139967;27;19908;-60
2023/08/04 00:51:45;;;;;;;;;;;15.50;99.90;;;;;;5139842;27;19914;-60
2023/08/04 00:54:10;;;;;;;;;;;15.40;99.90;;;;;;5139282;27;19911;-60
2023/08/04 00:56:37;;;;;;;;;;;15.40;99.90;;;;;;5139488;27;19914;-60
2023/08/04 00:59:02;;;;;;;;;;;15.40;99.90;;;;;;5139517;27;19912;-60
2023/08/04 01:01:28;;;;;;;;;;;15.40;99.90;;;;;;5139350;27;20006;-60
2023/08/04 01:03:55;;;;;;;;;;;15.40;99.90;;;;;;5139318;27;19907;-60
2023/08/04 01:06:23;;;;;;;;;;;15.40;99.90;;;;;;5139245;27;19908;-60
2023/08/04 01:09:02;;;;;;;;;;;15.30;99.90;;;;;;5139554;27;19956;-60
2023/08/04 01:11:32;;;;;;;;;;;15.30;99.90;;;;;;5139351;27;20332;-60
2023/08/04 01:13:58;;;;;;;;;;;15.30;99.90;;;;;;5139495;27;20283;-60
2023/08/04 01:16:24;;;;;;;;;;;15.30;99.90;;;;;;5139199;27;19934;-60
2023/08/04 01:18:50;;;;;;;;;;;15.20;99.90;;;;;;5139270;27;19915;-60
2023/08/04 01:21:15;;;;;;;;;;;15.20;99.90;;;;;;5139209;27;19919;-60
2023/08/04 01:23:41;;;;;;;;;;;15.20;99.90;;;;;;5139533;27;19915;-60
2023/08/04 01:26:10;;;;;;;;;;;15.20;99.90;;;;;;5138879;27;19908;-60
2023/08/04 01:28:37;;;;;;;;;;;15.20;99.90;;;;;;5138538;27;20401;-60
2023/08/04 01:31:03;;;;;;;;;;;15.20;99.90;;;;;;5138778;27;19930;-60
2023/08/04 01:33:29;;;;;;;;;;;15.10;99.90;;;;;;5139098;27;19908;-60
2023/08/04 01:35:55;;;;;;;;;;;15.10;99.90;;;;;;5138761;27;19935;-60
2023/08/04 01:38:21;;;;;;;;;;;15.10;99.90;;;;;;5139017;27;19919;-60
2023/08/04 01:40:46;;;;;;;;;;;15.00;99.90;;;;;;5139060;28;19908;-60
2023/08/04 01:43:12;;;;;;;;;;;15.00;99.90;;;;;;5138891;28;19908;-60
2023/08/04 01:45:38;;;;;;;;;;;15.00;99.90;;;;;;5138618;28;19908;-60
2023/08/04 01:48:03;;;;;;;;;;;14.90;99.90;;;;;;5138789;28;19998;-60
2023/08/04 01:50:29;;;;;;;;;;;14.90;99.90;;;;;;5139190;28;19914;-60
2023/08/04 01:52:54;;;;;;;;;;;14.90;99.90;;;;;;5138787;28;19907;-60
2023/08/04 01:55:20;;;;;;;;;;;14.90;99.90;;;;;;5139250;28;19911;-60
2023/08/04 01:57:46;;;;;;;;;;;14.80;99.90;;;;;;5138919;28;19907;-60
2023/08/04 02:00:13;;;;;;;;;;;14.80;99.90;;;;;;5138718;28;19908;-60
2023/08/04 02:02:39;;;;;;;;;;;14.80;99.90;;;;;;5138451;28;19907;-60
2023/08/04 02:05:05;;;;;;;;;;;14.70;99.90;;;;;;5138749;28;19995;-60
2023/08/04 02:07:31;;;;;;;;;;;14.70;99.90;;;;;;5138723;28;19911;-60
2023/08/04 02:09:56;;;;;;;;;;;14.70;99.90;;;;;;5139162;28;19939;-60
2023/08/04 02:12:22;;;;;;;;;;;14.60;99.90;;;;;;5138632;28;19907;-60
2023/08/04 02:14:47;;;;;;;;;;;14.60;99.90;;;;;;5138703;28;19908;-60
2023/08/04 02:17:15;;;;;;;;;;;14.50;99.90;;;;;;5138473;28;19955;-60
2023/08/04 02:19:41;;;;;;;;;;;14.50;99.90;;;;;;5138162;28;19946;-60
2023/08/04 02:22:07;;;;;;;;;;;14.50;99.90;;;;;;5138137;28;19927;-60
2023/08/04 02:24:32;;;;;;;;;;;14.50;99.90;;;;;;5138808;28;19998;-60
2023/08/04 02:26:58;;;;;;;;;;;14.50;99.90;;;;;;5138779;28;19907;-60
2023/08/04 02:29:23;;;;;;;;;;;14.50;99.90;;;;;;5138863;28;19907;-60
2023/08/04 02:31:49;;;;;;;;;;;14.50;99.90;;;;;;5138301;28;19907;-60
2023/08/04 02:34:15;;;;;;;;;;;14.50;99.90;;;;;;5138603;28;19915;-60
2023/08/04 02:36:41;;;;;;;;;;;14.50;99.90;;;;;;5138249;28;20327;-60
2023/08/04 02:39:06;;;;;;;;;;;14.50;99.90;;;;;;5140962;27;19975;-60
2023/08/04 02:41:32;;;;;;;;;;;14.50;99.90;;;;;;5142151;27;19932;-60
2023/08/04 02:43:58;;;;;;;;;;;14.50;99.90;;;;;;5142332;27;20323;-60
2023/08/04 02:46:25;;;;;;;;;;;14.50;99.90;;;;;;5142251;27;19915;-60
2023/08/04 02:48:51;;;;;;;;;;;14.60;99.90;;;;;;5142222;27;19932;-60
2023/08/04 02:51:17;;;;;;;;;;;14.50;99.90;;;;;;5142442;27;19992;-60
2023/08/04 02:53:43;;;;;;;;;;;14.60;99.90;;;;;;5142100;27;19907;-60
2023/08/04 02:56:15;;;;;;;;;;;14.50;99.90;;;;;;5142060;27;19915;-60
2023/08/04 02:58:42;;;;;;;;;;;14.50;99.90;;;;;;5141759;27;19912;-60
2023/08/04 03:01:07;;;;;;;;;;;14.50;99.90;;;;;;5142135;27;19914;-60
2023/08/04 03:03:33;;;;;;;;;;;14.50;99.90;;;;;;5142066;27;19907;-60
2023/08/04 03:05:59;;;;;;;;;;;14.50;99.90;;;;;;5142131;27;20377;-60
2023/08/04 03:08:25;;;;;;;;;;;14.50;99.90;;;;;;5141877;27;19914;-60
2023/08/04 03:10:51;;;;;;;;;;;14.50;99.90;;;;;;5141956;27;20278;-60
2023/08/04 03:13:16;;;;;;;;;;;14.50;99.90;;;;;;5141815;27;19942;-60
2023/08/04 03:15:42;;;;;;;;;;;14.40;99.90;;;;;;5141747;27;19915;-60
2023/08/04 03:18:08;;;;;;;;;;;14.50;99.90;;;;;;5141619;27;19960;-60
2023/08/04 03:20:37;;;;;;;;;;;14.40;99.90;;;;;;5141481;27;19966;-60
2023/08/04 03:23:04;;;;;;;;;;;14.40;99.90;;;;;;5141364;27;20312;-60
2023/08/04 03:25:29;;;;;;;;;;;14.30;99.90;;;;;;5141425;27;19957;-60
2023/08/04 03:27:55;;;;;;;;;;;14.30;99.90;;;;;;5141259;27;19911;-60
2023/08/04 03:30:21;;;;;;;;;;;14.30;99.90;;;;;;5141508;27;19915;-60
2023/08/04 03:32:46;;;;;;;;;;;14.20;99.90;;;;;;5141164;27;19932;-60
2023/08/04 03:35:12;;;;;;;;;;;14.20;99.90;;;;;;5140968;27;19990;-60
2023/08/04 03:37:38;;;;;;;;;;;14.20;99.90;;;;;;5141012;27;19908;-60
2023/08/04 03:40:04;;;;;;;;;;;14.20;99.90;;;;;;5141124;27;19982;-60
2023/08/04 03:42:30;;;;;;;;;;;14.20;99.90;;;;;;5141228;27;19972;-60
2023/08/04 03:44:56;;;;;;;;;;;14.20;99.90;;;;;;5141388;27;19915;-60
2023/08/04 03:47:21;;;;;;;;;;;14.30;99.90;;;;;;5140932;27;19908;-60
2023/08/04 03:49:47;;;;;;;;;;;14.30;99.90;;;;;;5140597;27;19929;-60
2023/08/04 03:52:13;;;;;;;;;;;14.40;99.90;;;;;;5140903;27;20292;-60
2023/08/04 03:54:38;;;;;;;;;;;14.40;99.90;;;;;;5140499;27;20278;-60
2023/08/04 03:57:05;;;;;;;;;;;14.30;99.90;;;;;;5140929;27;20430;-60
2023/08/04 03:59:30;;;;;;;;;;;14.40;99.90;;;;;;5140984;27;19911;-60
2023/08/04 04:01:56;;;;;;;;;;;14.40;99.90;;;;;;5141130;27;20346;-60
2023/08/04 04:04:21;;;;;;;;;;;14.40;99.90;;;;;;5140619;27;19952;-60
2023/08/04 04:06:47;;;;;;;;;;;14.40;99.90;;;;;;5140593;27;20006;-60
2023/08/04 04:09:14;;;;;;;;;;;14.30;99.90;;;;;;5140657;27;20362;-60
2023/08/04 04:11:40;;;;;;;;;;;14.30;99.90;;;;;;5140261;27;19907;-60
2023/08/04 04:14:05;;;;;;;;;;;14.40;99.90;;;;;;5140253;27;19907;-60
2023/08/04 04:16:31;;;;;;;;;;;14.40;99.90;;;;;;5140585;27;19972;-60
2023/08/04 04:18:56;;;;;;;;;;;14.40;99.90;;;;;;5140388;27;19922;-60
2023/08/04 04:21:22;;;;;;;;;;;14.40;99.90;;;;;;5140234;27;19919;-60
2023/08/04 04:23:48;;;;;;;;;;;14.40;99.90;;;;;;5140582;27;19907;-60
2023/08/04 04:26:14;;;;;;;;;;;14.50;99.90;;;;;;5140177;27;20343;-60
2023/08/04 04:28:39;;;;;;;;;;;14.50;99.90;;;;;;5140134;27;19990;-60
2023/08/04 04:31:05;;;;;;;;;;;14.50;99.90;;;;;;5140284;27;19962;-60
2023/08/04 04:33:31;;;;;;;;;;;14.50;99.90;;;;;;5140186;27;20002;-60
2023/08/04 04:35:56;;;;;;;;;;;14.50;99.90;;;;;;5137045;27;19916;-60
2023/08/04 04:38:28;;;;;;;;;;;14.50;99.90;;;;;;5128344;27;19912;-60
2023/08/04 04:40:58;;;;;;;;;;;14.50;99.90;;;;;;5130473;27;19915;-60
2023/08/04 04:43:24;;;;;;;;;;;14.50;99.90;;;;;;5130185;27;20291;-60
2023/08/04 04:45:50;;;;;;;;;;;14.50;99.90;;;;;;5131262;27;19908;-60
2023/08/04 04:48:16;;;;;;;;;;;14.60;99.90;;;;;;5118954;28;19997;-60
2023/08/04 04:50:41;;;;;;;;;;;14.60;99.90;;;;;;5100979;28;19908;-60
2023/08/04 04:53:07;;;;;;;;;;;14.60;99.90;;;;;;5118701;28;19908;-60
2023/08/04 04:55:33;;;;;;;;;;;14.60;99.90;;;;;;5118488;28;19912;-60
2023/08/04 04:57:58;;;;;;;;;;;14.60;99.90;;;;;;5118554;28;19935;-60
2023/08/04 05:00:24;;;;;;;;;;;14.60;99.90;;;;;;5119115;28;20343;-60
2023/08/04 05:02:49;;;;;;;;;;;14.60;99.90;;;;;;5117858;28;19912;-60
2023/08/04 05:05:15;;;;;;;;;;;14.60;99.90;;;;;;5118551;28;19958;-60
2023/08/04 05:07:41;;;;;;;;;;;14.60;99.90;;;;;;5118806;28;19916;-60
2023/08/04 05:10:07;;;;;;;;;;;14.60;99.90;;;;;;5118875;28;19908;-60
2023/08/04 05:12:33;;;;;;;;;;;14.60;99.90;;;;;;5103334;28;19915;-60
2023/08/04 05:14:59;;;;;;;;;;;14.60;99.90;;;;;;5134313;27;19907;-60
2023/08/04 05:17:24;;;;;;;;;;;14.60;99.90;;;;;;5139102;27;19914;-60
2023/08/04 05:19:50;;;;;;;;;;;14.60;99.90;;;;;;5139248;27;20006;-60
2023/08/04 05:22:15;;;;;;;;;;;14.60;99.90;;;;;;5138805;27;19919;-60
2023/08/04 05:24:41;;;;;;;;;;;14.70;99.90;;;;;;5139373;27;19914;-60
2023/08/04 05:27:07;;;;;;;;;;;14.60;99.90;;;;;;5138873;27;19908;-60
2023/08/04 05:29:33;;;;;;;;;;;14.70;99.90;;;;;;5138871;27;19955;-60
2023/08/04 05:31:58;;;;;;;;;;;14.60;99.90;;;;;;5139026;27;19907;-60
2023/08/04 05:34:24;;;;;;;;;;;14.60;99.90;;;;;;5139088;27;19907;-60
2023/08/04 05:36:50;;;;;;;;;;;14.70;99.90;;;;;;5138740;27;19907;-60
2023/08/04 05:39:15;;;;;;;;;;;14.70;99.90;;;;;;5138339;27;19912;-60
2023/08/04 05:41:44;;;;;;;;;;;14.70;99.90;;;;;;5138934;27;19914;-60
2023/08/04 05:44:10;;;;;;;;;;;14.70;99.90;;;;;;5138599;28;20365;-59
2023/08/04 05:46:35;;;;;;;;;;;14.70;99.90;;;;;;5138949;28;19907;-60
2023/08/04 05:49:01;;;;;;;;;;;14.80;99.90;;;;;;5138953;28;19937;-60
2023/08/04 05:51:27;;;;;;;;;;;14.80;99.90;;;;;;5138733;28;19914;-60
2023/08/04 05:53:53;;;;;;;;;;;14.80;99.90;;;;;;5139181;28;19907;-60
2023/08/04 05:56:18;;;;;;;;;;;14.80;99.90;;;;;;5138897;28;20385;-60
2023/08/04 05:58:44;;;;;;;;;;;14.80;99.90;;;;;;5138864;28;19911;-60
2023/08/04 06:01:10;;;;;;;;;;;14.80;99.90;;;;;;5132581;28;20254;-60
2023/08/04 06:03:36;;;;;;;;;;;14.90;99.90;;;;;;5126985;28;19943;-60
2023/08/04 06:06:02;;;;;;;;;;;14.90;99.90;;;;;;5132550;28;19959;-60
2023/08/04 06:08:29;;;;;;;;;;;14.90;99.90;;;;;;5129035;28;19911;-60
2023/08/04 06:10:54;;;;;;;;;;;15.00;99.90;;;;;;5108734;28;19907;-60
2023/08/04 06:13:20;;;;;;;;;;;15.00;99.90;;;;;;5125911;27;19912;-60
2023/08/04 06:15:47;;;;;;;;;;;15.00;99.90;;;;;;5128322;27;20239;-60
2023/08/04 06:18:13;;;;;;;;;;;15.10;99.90;;;;;;5134263;27;19918;-60
2023/08/04 06:20:39;;;;;;;;;;;15.10;99.90;;;;;;5132891;27;20286;-60
2023/08/04 06:23:05;;;;;;;;;;;15.10;99.90;;;;;;5136373;27;19908;-60
2023/08/04 06:25:31;;;;;;;;;;;15.10;99.90;;;;;;5130361;27;20291;-60
2023/08/04 06:27:57;;;;;;;;;;;15.10;99.90;;;;;;5132521;27;19908;-60
2023/08/04 06:30:23;;;;;;;;;;;15.20;99.90;;;;;;5128511;27;20352;-60
2023/08/04 06:32:49;;;;;;;;;;;15.20;99.90;;;;;;5129736;27;20144;-60
2023/08/04 06:35:15;;;;;;;;;;;15.20;99.90;;;;;;5136131;27;19912;-60
2023/08/04 06:37:41;;;;;;;;;;;15.30;99.90;;;;;;5114599;27;19911;-60
2023/08/04 06:40:07;;;;;;;;;;;15.30;99.90;;;;;;5134115;27;19912;-59
2023/08/04 06:42:32;;;;;;;;;;;15.40;99.90;;;;;;5142217;27;19908;-60
2023/08/04 06:44:58;;;;;;;;;;;15.40;99.90;;;;;;5142063;27;19911;-60
2023/08/04 06:47:24;;;;;;;;;;;15.40;99.90;;;;;;5141856;27;19943;-60
2023/08/04 06:49:50;;;;;;;;;;;15.50;99.90;;;;;;5141578;27;19914;-60
2023/08/04 06:52:15;;;;;;;;;;;15.50;99.90;;;;;;5123259;27;19946;-59
2023/08/04 06:54:41;;;;;;;;;;;15.50;99.90;;;;;;5141778;27;19937;-59
2023/08/04 06:57:07;;;;;;;;;;;15.70;99.90;;;;;;5142138;27;19998;-59
2023/08/04 06:59:33;;;;;;;;;;;15.70;99.90;;;;;;5141793;27;19912;-60
2023/08/04 07:01:58;;;;;;;;;;;15.70;99.90;;;;;;5141585;27;19957;-60
2023/08/04 07:04:24;;;;;;;;;;;15.80;99.90;;;;;;5141659;27;19907;-60
2023/08/04 07:06:50;;;;;;;;;;;15.80;99.90;;;;;;5141488;27;19907;-59
2023/08/04 07:09:16;;;;;;;;;;;15.90;99.90;;;;;;5141541;27;20401;-60
2023/08/04 07:11:41;;;;;;;;;;;15.90;99.90;;;;;;5141534;27;20003;-59
2023/08/04 07:14:07;;;;;;;;;;;15.90;99.90;;;;;;5141815;27;20312;-59
2023/08/04 07:16:33;;;;;;;;;;;15.90;99.90;;;;;;5141389;27;19960;-59
2023/08/04 07:18:59;;;;;;;;;;;16.00;99.90;;;;;;5141322;27;19916;-60
2023/08/04 07:21:24;;;;;;;;;;;16.10;99.90;;;;;;5141295;27;20267;-60
2023/08/04 07:23:50;;;;;;;;;;;16.20;99.90;;;;;;5141255;27;19907;-60
2023/08/04 07:26:16;;;;;;;;;;;16.20;99.90;;;;;;5139943;27;19907;-60
2023/08/04 07:28:42;;;;;;;;;;;16.30;99.90;;;;;;5141273;27;19985;-60
2023/08/04 07:31:08;;;;;;;;;;;16.30;99.90;;;;;;5123319;27;19907;-60
2023/08/04 07:33:34;;;;;;;;;;;16.40;99.90;;;;;;5138552;27;19988;-60
2023/08/04 07:36:00;;;;;;;;;;;17.10;99.90;;;;;;5138169;27;19907;-60
2023/08/04 07:38:27;;;;;;;;;;;16.40;99.90;;;;;;5139378;27;20006;-60
2023/08/04 07:40:53;;;;;;;;;;;16.50;99.90;;;;;;5120381;28;20320;-59
2023/08/04 07:43:19;;;;;;;;;;;16.60;99.90;;;;;;5120293;28;19991;-60
2023/08/04 07:45:44;;;;;;;;;;;16.70;99.90;;;;;;5120028;28;19908;-60
2023/08/04 07:48:10;;;;;;;;;;;16.90;99.90;;;;;;5120517;28;19908;-60
2023/08/04 07:50:37;;;;;;;;;;;17.00;99.90;;;;;;5120186;28;20324;-60
2023/08/04 07:53:02;;;;;;;;;;;17.10;99.90;;;;;;5119899;28;19945;-60
2023/08/04 07:55:29;;;;;;;;;;;17.10;99.90;;;;;;5119730;28;19911;-60
2023/08/04 07:57:54;;;;;;;;;;;17.10;99.90;;;;;;5119963;28;19907;-60
2023/08/04 08:00:20;;;;;;;;;;;17.00;99.90;;;;;;5120449;28;20328;-60
2023/08/04 08:02:45;;;;;;;;;;;17.10;99.90;;;;;;5119844;28;19930;-60
2023/08/04 08:05:11;;;;;;;;;;;17.00;99.90;;;;;;5120390;28;19934;-60
2023/08/04 08:07:37;;;;;;;;;;;17.10;99.90;;;;;;5120078;28;19908;-59
2023/08/04 08:10:02;;;;;;;;;;;17.10;99.90;;;;;;5119983;28;19957;-60
2023/08/04 08:12:29;;;;;;;;;;;17.10;99.90;;;;;;5119725;28;19908;-59
2023/08/04 08:14:55;;;;;;;;;;;17.10;99.90;;;;;;5119469;28;19946;-60
2023/08/04 08:17:21;;;;;;;;;;;17.20;99.90;;;;;;5119489;28;19912;-60
2023/08/04 08:19:46;;;;;;;;;;;17.20;99.90;;;;;;5119778;28;19918;-60
2023/08/04 08:22:12;;;;;;;;;;;17.30;99.90;;;;;;5119016;28;19920;-60
2023/08/04 08:24:38;;;;;;;;;;;17.40;99.90;;;;;;5119911;28;19954;-59
2023/08/04 08:27:03;;;;;;;;;;;17.40;99.90;;;;;;5119456;28;19907;-60
2023/08/04 08:29:29;;;;;;;;;;;17.50;99.90;;;;;;5119915;28;19911;-60
2023/08/04 08:31:55;;;;;;;;;;;17.50;99.90;;;;;;5119451;28;20329;-60
2023/08/04 08:34:20;;;;;;;;;;;17.50;99.90;;;;;;5119710;28;19912;-60
2023/08/04 08:36:47;;;;;;;;;;;17.60;99.90;;;;;;5119068;28;19908;-60
2023/08/04 08:39:12;;;;;;;;;;;17.70;99.90;;;;;;5119276;28;19912;-59
2023/08/04 08:41:38;;;;;;;;;;;17.80;99.90;;;;;;5119384;28;20441;-60
2023/08/04 08:44:04;;;;;;;;;;;18.00;99.90;;;;;;5119115;28;19908;-60
2023/08/04 08:46:29;;;;;;;;;;;18.20;99.90;;;;;;5119271;28;19957;-60
2023/08/04 08:48:57;;;;;;;;;;;18.30;99.90;;;;;;5118820;28;19908;-60
2023/08/04 08:51:22;;;;;;;;;;;18.40;99.90;;;;;;5119192;28;19914;-60
2023/08/04 08:53:48;;;;;;;;;;;18.40;99.90;;;;;;5118922;28;19971;-60
2023/08/04 08:56:15;;;;;;;;;;;18.40;99.90;;;;;;5119159;28;19908;-60
2023/08/04 08:58:41;;;;;;;;;;;18.20;99.90;;;;;;5118651;28;20302;-60
2023/08/04 09:01:07;;;;;;;;;;;18.30;99.90;;;;;;5119126;28;19933;-60
2023/08/04 09:03:36;;;;;;;;;;;18.30;99.90;;;;;;5118682;28;19930;-60
2023/08/04 09:06:02;;;;;;;;;;;18.50;99.90;;;;;;5118723;28;20371;-60
2023/08/04 09:08:30;;;;;;;;;;;18.60;99.90;;;;;;5119015;28;19935;-60
2023/08/04 09:10:59;;;;;;;;;;;18.60;99.90;;;;;;5118806;28;19914;-60
2023/08/04 09:13:26;;;;;;;;;;;18.60;99.90;;;;;;5118399;28;19951;-60
2023/08/04 09:15:53;;;;;;;;;;;18.50;99.90;;;;;;5118767;28;19915;-59
2023/08/04 09:18:31;;;;;;;;;;;18.60;99.90;;;;;;5118714;28;19918;-59
2023/08/04 09:20:59;;;;;;;;;;;18.90;99.90;;;;;;5118743;28;19931;-60
2023/08/04 09:23:25;;;;;;;;;;;19.10;99.90;;;;;;5118433;28;20542;-60
2023/08/04 09:25:52;;;;;;;;;;;19.40;99.90;;;;;;5118528;28;20062;-60
2023/08/04 09:28:17;;;;;;;;;;;19.60;99.90;;;;;;5118519;28;20355;-60
2023/08/04 09:30:59;;;;;;;;;;;19.80;99.90;;;;;;5118401;28;19958;-60
2023/08/04 09:33:30;;;;;;;;;;;19.90;99.90;;;;;;5118121;28;20019;-60
2023/08/04 09:36:18;;;;;;;;;;;20.00;99.90;;;;;;5118150;28;19961;-60
2023/08/04 09:38:44;;;;;;;;;;;20.00;99.90;;;;;;5118421;28;19990;-60
2023/08/04 09:41:11;;;;;;;;;;;20.20;99.90;;;;;;5118553;28;19908;-60
2023/08/04 09:43:45;;;;;;;;;;;20.10;99.90;;;;;;5118545;28;19953;-60
2023/08/04 09:46:11;;;;;;;;;;;20.40;99.90;;;;;;5118143;28;19908;-64
2023/08/04 09:48:36;;;;;;;;;;;20.50;99.90;;;;;;5121889;28;19975;-64
2023/08/04 09:51:12;;;;;;;;;;;20.50;99.90;;;;;;5125021;28;19907;-64
2023/08/04 09:53:48;;;;;;;;;;;20.50;99.90;;;;;;5125195;28;19907;-64
2023/08/04 09:56:15;;;;;;;;;;;20.50;99.90;;;;;;5125134;28;19915;-64
2023/08/04 09:58:41;;;;;;;;;;;20.50;99.90;;;;;;5125292;28;19912;-64
2023/08/04 10:01:07;;;;;;;;;;;20.60;99.90;;;;;;5125121;28;19941;-64
2023/08/04 10:03:33;;;;;;;;;;;20.40;99.90;;;;;;5125155;28;19915;-64
2023/08/04 10:06:00;;;;;;;;;;;20.60;99.90;;;;;;5124849;28;19907;-64
2023/08/04 10:08:39;;;;;;;;;;;20.80;99.90;;;;;;5124993;28;19915;-64
2023/08/04 10:11:05;;;;;;;;;;;21.50;99.90;;;;;;5124515;28;19914;-64
2023/08/04 10:13:41;;;;;;;;;;;22.40;99.90;;;;;;5125198;28;19974;-64
2023/08/04 10:16:08;;;;;;;;;;;23.40;99.90;;;;;;5124800;28;19954;-64
2023/08/04 10:18:47;;;;;;;;;;;24.30;99.90;;;;;;5124779;28;19919;-64
2023/08/04 10:21:13;;;;;;;;;;;24.80;99.90;;;;;;5124656;28;19927;-64
2023/08/04 10:23:40;;;;;;;;;;;25.70;99.90;;;;;;5124940;28;20366;-64
2023/08/04 10:26:05;;;;;;;;;;;25.60;99.90;;;;;;5124668;28;19933;-64
2023/08/04 10:28:31;;;;;;;;;;;25.00;99.90;;;;;;5124172;28;19907;-64
2023/08/04 10:31:11;;;;;;;;;;;24.50;99.90;;;;;;5124029;28;19912;-64
2023/08/04 10:33:36;;;;;;;;;;;23.90;99.90;;;;;;5124587;28;19908;-64
2023/08/04 10:36:04;;;;;;;;;;;23.50;99.90;;;;;;5124354;28;19908;-64
2023/08/04 10:38:50;;;;;;;;;;;23.20;99.90;;;;;;5123882;28;19912;-64
2023/08/04 10:41:16;;;;;;;;;;;22.80;99.90;;;;;;5124373;28;19915;-64
2023/08/04 10:43:58;;;;;;;;;;;22.50;99.90;;;;;;5124431;28;19908;-64
2023/08/04 10:46:24;;;;;;;;;;;22.90;99.90;;;;;;5124498;28;19908;-64
2023/08/04 10:48:49;;;;;;;;;;;24.60;99.90;;;;;;5124380;28;19954;-64
2023/08/04 10:51:16;;;;;;;;;;;26.00;99.90;;;;;;5124547;28;19952;-64
2023/08/04 10:53:42;;;;;;;;;;;26.40;99.90;;;;;;5124666;28;19908;-64
2023/08/04 10:56:07;;;;;;;;;;;26.80;99.80;;;;;;5124744;28;19915;-64
2023/08/04 10:58:33;;;;;;;;;;;25.80;98.30;;;;;;5124479;28;19938;-64
2023/08/04 11:00:59;;;;;;;;;;;25.50;99.90;;;;;;5120940;28;20363;-64
2023/08/04 11:03:33;;;;;;;;;;;25.70;98.30;;;;;;5121240;28;19915;-64
2023/08/04 11:05:59;;;;;;;;;;;25.80;99.90;;;;;;5121335;28;19957;-64
2023/08/04 11:08:25;;;;;;;;;;;25.20;97.30;;;;;;5121085;28;19908;-64
2023/08/04 11:10:55;;;;;;;;;;;25.40;99.90;;;;;;5121529;28;19914;-64
2023/08/04 11:13:22;;;;;;;;;;;25.80;99.10;;;;;;5120901;28;20323;-64
2023/08/04 11:15:48;;;;;;;;;;;25.40;93.20;;;;;;5120895;28;19953;-64
2023/08/04 11:18:15;;;;;;;;;;;24.60;97.90;;;;;;5120995;28;19978;-64
2023/08/04 11:20:41;;;;;;;;;;;24.50;98.60;;;;;;5120830;28;19920;-64
2023/08/04 11:23:10;;;;;;;;;;;25.30;96.60;;;;;;5121014;28;19911;-64
2023/08/04 11:25:36;;;;;;;;;;;26.80;99.90;;;;;;5120441;28;19907;-64
2023/08/04 11:28:02;;;;;;;;;;;27.50;99.90;;;;;;5120911;28;19915;-64
2023/08/04 11:30:28;;;;;;;;;;;28.20;99.00;;;;;;5120763;28;19914;-64
2023/08/04 11:32:54;;;;;;;;;;;28.40;97.40;;;;;;5120503;28;19992;-64
2023/08/04 11:35:19;;;;;;;;;;;28.90;84.70;;;;;;5120640;28;19998;-64
2023/08/04 11:37:45;;;;;;;;;;;28.30;74.30;;;;;;5120429;28;19960;-64
2023/08/04 11:40:18;;;;;;;;;;;28.00;85.60;;;;;;5120540;28;19919;-64
2023/08/04 11:42:43;;;;;;;;;;;28.50;90.60;;;;;;5120658;28;19908;-64
2023/08/04 11:45:09;;;;;;;;;;;29.60;83.20;;;;;;5120675;28;20228;-64
2023/08/04 11:47:35;;;;;;;;;;;29.70;78.00;;;;;;5120434;28;20274;-63
2023/08/04 11:50:02;;;;;;;;;;;28.50;68.20;;;;;;5120460;28;19914;-64
2023/08/04 11:52:28;;;;;;;;;;;27.00;72.80;;;;;;5120122;28;19908;-64
2023/08/04 11:54:56;;;;;;;;;;;26.60;74.50;;;;;;5120571;28;20344;-64
2023/08/04 11:57:22;;;;;;;;;;;26.10;84.70;;;;;;5120273;28;19983;-64
2023/08/04 11:59:48;;;;;;;;;;;26.30;91.60;;;;;;5120014;28;19947;-64
2023/08/04 12:02:14;;;;;;;;;;;26.80;85.60;;;;;;5120012;28;19914;-64
2023/08/04 12:04:40;;;;;;;;;;;27.20;83.40;;;;;;5119803;28;20344;-63
2023/08/04 12:07:06;;;;;;;;;;;27.20;90.20;;;;;;5120341;28;20248;-63
2023/08/04 12:09:32;;;;;;;;;;;27.50;75.30;;;;;;5119835;28;19907;-64
2023/08/04 12:11:58;;;;;;;;;;;27.40;80.60;;;;;;5118462;28;19916;-64
2023/08/04 12:14:24;;;;;;;;;;;27.10;72.50;;;;;;5119484;28;19908;-64
2023/08/04 12:16:54;;;;;;;;;;;26.30;72.00;;;;;;5119752;28;20290;-63
2023/08/04 12:19:21;;;;;;;;;;;26.10;74.30;;;;;;5119786;28;19918;-63
2023/08/04 12:21:46;;;;;;;;;;;25.80;77.20;;;;;;5119321;28;20014;-63
2023/08/04 12:24:12;;;;;;;;;;;25.40;88.50;;;;;;5119572;28;19951;-64
2023/08/04 12:26:38;;;;;;;;;;;25.20;93.50;;;;;;5119786;28;19907;-64
2023/08/04 12:29:04;;;;;;;;;;;25.30;88.50;;;;;;5119476;28;19915;-64
2023/08/04 12:31:29;;;;;;;;;;;25.90;89.90;;;;;;5119913;28;20274;-63
2023/08/04 12:33:55;;;;;;;;;;;26.80;93.80;;;;;;5119547;28;19908;-63
2023/08/04 12:36:21;;;;;;;;;;;27.70;93.00;;;;;;5119547;28;20049;-63
2023/08/04 12:38:46;;;;;;;;;;;28.20;76.30;;;;;;5119349;28;19934;-63
2023/08/04 12:41:12;;;;;;;;;;;28.40;78.40;;;;;;5119241;28;19938;-63
2023/08/04 12:43:38;;;;;;;;;;;28.70;81.60;;;;;;5119349;28;19907;-63
2023/08/04 12:46:03;;;;;;;;;;;28.90;85.70;;;;;;5119179;28;19908;-63
2023/08/04 12:48:29;;;;;;;;;;;28.80;73.30;;;;;;5119243;28;19963;-63
2023/08/04 12:50:55;;;;;;;;;;;28.90;79.00;;;;;;5119387;28;19931;-63
2023/08/04 12:53:20;;;;;;;;;;;29.20;71.70;;;;;;5119195;28;19907;-63
2023/08/04 12:55:47;;;;;;;;;;;28.90;69.10;;;;;;5119282;28;19908;-63
2023/08/04 12:58:13;;;;;;;;;;;28.90;71.80;;;;;;5118918;28;20370;-63
2023/08/04 13:00:38;;;;;;;;;;;28.90;65.60;;;;;;5119185;28;19907;-63
2023/08/04 13:03:04;;;;;;;;;;;28.40;66.80;;;;;;5119033;28;19928;-63
2023/08/04 13:05:29;;;;;;;;;;;27.50;63.00;;;;;;5119268;28;19938;-63
2023/08/04 13:07:56;;;;;;;;;;;27.10;66.20;;;;;;5118707;28;19908;-63
2023/08/04 13:10:22;;;;;;;;;;;26.70;72.70;;;;;;5119172;28;19967;-63
2023/08/04 13:12:48;;;;;;;;;;;26.20;68.80;;;;;;5118657;28;19907;-63
2023/08/04 13:15:13;;;;;;;;;;;25.70;74.00;;;;;;5118877;28;19998;-63
2023/08/04 13:17:39;;;;;;;;;;;26.00;89.10;;;;;;5118318;28;20232;-63
2023/08/04 13:20:08;;;;;;;;;;;26.40;79.50;;;;;;5118312;28;19920;-63
2023/08/04 13:22:36;;;;;;;;;;;27.10;79.90;;;;;;5117468;28;19912;-63
2023/08/04 13:25:05;;;;;;;;;;;27.90;86.70;;;;;;5118374;28;19953;-63
2023/08/04 13:27:31;;;;;;;;;;;28.10;68.70;;;;;;5118324;28;20073;-63
2023/08/04 13:29:57;;;;;;;;;;;27.70;65.80;;;;;;5118699;28;19907;-64
2023/08/04 13:32:23;;;;;;;;;;;28.10;69.50;;;;;;5118169;28;19914;-64
2023/08/04 13:34:48;;;;;;;;;;;27.00;65.30;;;;;;5118556;28;20414;-63
2023/08/04 13:37:14;;;;;;;;;;;26.60;70.00;;;;;;5118414;28;19912;-64
2023/08/04 13:39:39;;;;;;;;;;;26.90;85.50;;;;;;5118079;28;19911;-64
2023/08/04 13:42:05;;;;;;;;;;;27.60;87.10;;;;;;5118316;28;19915;-64
2023/08/04 13:44:31;;;;;;;;;;;28.00;69.70;;;;;;5099902;28;19961;-64
2023/08/04 13:46:57;;;;;;;;;;;28.00;70.00;;;;;;5118428;28;19912;-64
2023/08/04 13:49:22;;;;;;;;;;;28.10;67.10;;;;;;5118603;28;19908;-64
2023/08/04 13:51:48;;;;;;;;;;;28.30;68.10;;;;;;5118158;28;19908;-64
2023/08/04 13:54:14;;;;;;;;;;;28.70;69.30;;;;;;5118083;28;19911;-64
2023/08/04 13:56:43;;;;;;;;;;;28.20;64.70;;;;;;5118193;28;19953;-63
2023/08/04 13:59:08;;;;;;;;;;;27.30;62.80;;;;;;5118216;28;20252;-63
2023/08/04 14:01:34;;;;;;;;;;;27.00;69.40;;;;;;5118331;28;19956;-63
2023/08/04 14:04:00;;;;;;;;;;;26.60;64.90;;;;;;5117916;28;19914;-63
2023/08/04 14:06:25;;;;;;;;;;;26.30;67.00;;;;;;5117911;28;19961;-63
2023/08/04 14:08:51;;;;;;;;;;;25.80;68.00;;;;;;4733575;22;20200;-63
2023/08/04 14:11:17;;;;;;;;;;;25.30;71.10;;;;;;4807286;22;19927;-63